首页
METAR-TAF:

METAR-TAF

机场 :

帕德博恩/利普施塔特机场

Paderborn-Lippstadt, 德国

纬度: 51-37N, 经度: 008-37E, 海拔: 213米

当前天气观测

该预报发布于48分钟前的19:20 UTC
风速13节,风向西南
温度 6°C
湿度 70%
气压 1024 hPa
能见度10公里或以上
散云层高于3700英尺
多云层高于4300英尺

METAR: EDLP 211920Z 22013KT 9999 SCT037 BKN043 06/01 Q1024

时间: 21:08 (20:08 UTC)

预报

该预报发布于3小时和8分钟前的17:00 UTC
预报有效从21日的 18点(UTC)到 22日的 18点(UTC)
风速15节,风向西南,有时为25节阵风
能见度10公里或以上
多云层高于4000英尺
成为
从 22日的 03点(UTC)到 22日的 06点(UTC)
风速20节,风向西南,有时为30节阵风
几率 30% :
短暂存在
从 22日的 10点(UTC)到 22日的 18点(UTC)
风速25节,风向西南,有时为40节阵风
多云层高于1400英尺

TAF: EDLP 211700Z 2118/2218 23015G25KT 9999 BKN040 BECMG 2203/2206 22020G30KT PROB30 TEMPO 2210/2218 23025G40KT BKN014

超过4000个机场的气象观测和天气预报(METAR&TAF报告)。

可查询的气象台以黄色和红色小点在地图上表示。

将鼠标移到小点上方,可查看气象台名称。

然后点击查看天气观测和预报。

如需切换地图:点击带黑十字的绿色按钮放大地图;点击带横线的绿色按钮缩小地图;或者点击绿色箭头查看邻近地区的地图。


METAR-TAF: